createdAt,value
2022-08-07T00:01:43.259Z,51.33
2022-08-07T00:03:50.653Z,54.40
2022-08-07T00:06:17.549Z,51.66
2022-08-07T00:08:47.089Z,52.25
2022-08-07T00:11:13.810Z,51.66
2022-08-07T00:13:47.861Z,51.97
2022-08-07T00:16:17.430Z,51.68
2022-08-07T00:18:48.440Z,52.02
2022-08-07T00:21:55.989Z,51.69
2022-08-07T00:24:01.653Z,51.80
2022-08-07T00:26:48.639Z,52.71
2022-08-07T00:29:15.367Z,52.59
2022-08-07T00:31:42.455Z,51.59
2022-08-07T00:34:09.599Z,52.63
2022-08-07T00:36:38.698Z,51.07
2022-08-07T00:39:12.765Z,53.35
2022-08-07T00:42:01.795Z,52.46
2022-08-07T00:44:31.329Z,51.90
2022-08-07T00:47:03.607Z,51.86
2022-08-07T00:50:20.850Z,54.34
2022-08-07T00:52:20.219Z,53.30
2022-08-07T00:54:53.791Z,53.61
2022-08-07T00:57:25.171Z,55.15
2022-08-07T00:59:53.421Z,54.76
2022-08-07T01:02:28.333Z,53.92
2022-08-07T01:04:58.223Z,54.65
2022-08-07T01:07:28.386Z,53.78
2022-08-07T01:10:04.254Z,52.62
2022-08-07T01:12:34.831Z,52.53
2022-08-07T01:15:03.699Z,53.46
2022-08-07T01:17:31.611Z,52.80
2022-08-07T01:20:07.923Z,54.44
2022-08-07T01:22:36.583Z,53.91
2022-08-07T01:25:54.727Z,53.28
2022-08-07T01:27:53.065Z,53.41
2022-08-07T01:30:21.522Z,52.40
2022-08-07T01:32:54.856Z,54.07
2022-08-07T01:35:21.688Z,54.26
2022-08-07T01:37:51.666Z,54.05
2022-08-07T01:40:21.417Z,55.50
2022-08-07T01:42:58.959Z,55.30
2022-08-07T01:45:37.017Z,56.14
2022-08-07T01:48:29.193Z,56.74
2022-08-07T01:51:24.550Z,56.08
2022-08-07T01:54:08.455Z,55.05
2022-08-07T01:56:49.391Z,56.26
2022-08-07T01:59:36.497Z,56.37
2022-08-07T02:02:10.497Z,57.56
2022-08-07T02:05:04.645Z,55.15
2022-08-07T02:07:51.648Z,55.11
2022-08-07T02:10:37.981Z,55.10
2022-08-07T02:13:10.545Z,55.69
2022-08-07T02:15:47.174Z,56.35
2022-08-07T02:18:20.854Z,56.25
2022-08-07T02:20:55.795Z,56.56
2022-08-07T02:23:25.820Z,56.97
2022-08-07T02:26:26.623Z,56.53
2022-08-07T02:28:43.128Z,56.43
2022-08-07T02:31:28.301Z,57.10
2022-08-07T02:34:03.636Z,57.48
2022-08-07T02:36:35.881Z,57.31
2022-08-07T02:39:16.359Z,57.48
2022-08-07T02:41:54.606Z,58.29
2022-08-07T02:44:27.493Z,57.76
2022-08-07T02:47:04.028Z,57.63
2022-08-07T02:49:57.643Z,58.52
2022-08-07T02:52:31.971Z,56.59
2022-08-07T02:55:28.116Z,56.21
2022-08-07T02:57:54.677Z,57.15
2022-08-07T03:00:23.630Z,57.31
2022-08-07T03:02:54.268Z,58.20
2022-08-07T03:05:24.603Z,56.76
2022-08-07T03:08:05.097Z,57.07
2022-08-07T03:10:40.898Z,56.63
2022-08-07T03:13:19.776Z,57.56
2022-08-07T03:15:56.360Z,58.67
2022-08-07T03:18:34.584Z,58.36
2022-08-07T03:21:08.805Z,59.47
2022-08-07T03:24:20.858Z,60.21
2022-08-07T03:26:31.070Z,59.33
2022-08-07T03:29:01.941Z,60.41
2022-08-07T03:31:42.375Z,61.51
2022-08-07T03:34:10.691Z,60.52
2022-08-07T03:36:48.273Z,61.01
2022-08-07T03:39:17.255Z,60.97
2022-08-07T03:42:05.427Z,62.52
2022-08-07T03:44:36.926Z,61.74
2022-08-07T03:47:13.044Z,62.63
2022-08-07T03:49:47.831Z,62.46
2022-08-07T03:52:22.932Z,62.23
2022-08-07T03:55:06.201Z,62.54
2022-08-07T03:58:33.677Z,62.54
2022-08-07T04:00:30.368Z,62.15
2022-08-07T04:02:59.026Z,62.84
2022-08-07T04:05:41.137Z,62.31
2022-08-07T04:08:21.065Z,62.92
2022-08-07T04:10:54.712Z,63.16
2022-08-07T04:14:32.987Z,62.95
2022-08-07T04:16:30.964Z,63.62
2022-08-07T04:19:04.419Z,62.56
2022-08-07T04:21:59.479Z,62.50
2022-08-07T04:24:33.640Z,62.57
2022-08-07T04:27:04.711Z,63.26
2022-08-07T04:29:58.205Z,63.45
2022-08-07T04:32:18.308Z,62.48
2022-08-07T04:34:54.898Z,62.30
2022-08-07T04:37:21.746Z,62.70
2022-08-07T04:39:52.567Z,62.78
2022-08-07T04:42:20.474Z,63.56
2022-08-07T04:45:03.021Z,62.48
2022-08-07T04:48:00.915Z,62.41
2022-08-07T04:50:38.669Z,62.35
2022-08-07T04:53:40.022Z,62.30
2022-08-07T04:58:10.524Z,62.38
2022-08-07T05:00:07.937Z,62.74
2022-08-07T05:02:05.185Z,62.97
2022-08-07T05:04:52.644Z,62.30
2022-08-07T05:07:30.484Z,61.86
2022-08-07T05:10:37.870Z,62.18
2022-08-07T05:14:55.125Z,62.12
2022-08-07T05:16:04.391Z,62.25
2022-08-07T05:18:47.337Z,61.55
2022-08-07T05:21:18.377Z,62.01
2022-08-07T05:24:12.315Z,61.71
2022-08-07T05:26:39.635Z,61.64
2022-08-07T05:29:10.133Z,62.65
2022-08-07T05:31:41.086Z,60.94
2022-08-07T05:34:21.067Z,60.85
2022-08-07T05:36:53.822Z,61.80
2022-08-07T05:40:06.772Z,61.06
2022-08-07T05:42:14.438Z,60.13
2022-08-07T05:44:52.804Z,59.80
2022-08-07T05:48:00.036Z,60.43
2022-08-07T05:50:18.513Z,62.13
2022-08-07T05:52:45.741Z,61.54
2022-08-07T05:55:13.624Z,60.58
2022-08-07T05:57:45.551Z,59.70
2022-08-07T06:00:16.127Z,60.55
2022-08-07T06:02:50.641Z,59.58
2022-08-07T06:05:18.231Z,57.95
2022-08-07T06:08:29.884Z,57.57
2022-08-07T06:10:41.194Z,60.15
2022-08-07T06:13:13.395Z,58.25
2022-08-07T06:15:42.880Z,57.66
2022-08-07T06:18:16.533Z,59.32
2022-08-07T06:20:51.116Z,59.36
2022-08-07T06:24:37.300Z,57.60
2022-08-07T06:26:27.289Z,58.47
2022-08-07T06:28:57.961Z,59.59
2022-08-07T06:31:47.261Z,57.04
2022-08-07T06:34:14.216Z,56.25
2022-08-07T06:36:41.713Z,59.08
2022-08-07T06:40:16.014Z,59.44
2022-08-07T06:42:04.109Z,56.96
2022-08-07T06:44:52.105Z,57.19
2022-08-07T06:47:21.062Z,59.13
2022-08-07T06:49:58.741Z,58.59
2022-08-07T06:52:36.065Z,57.36
2022-08-07T06:55:34.340Z,57.58
2022-08-07T06:58:10.238Z,58.73
2022-08-07T07:00:45.172Z,57.00
2022-08-07T07:03:14.513Z,59.28
2022-08-07T07:06:02.869Z,58.29
2022-08-07T07:08:33.819Z,57.33
2022-08-07T07:11:13.042Z,56.39
2022-08-07T07:13:58.200Z,58.17
2022-08-07T07:16:31.382Z,58.12
2022-08-07T07:19:04.210Z,58.15
2022-08-07T07:22:04.999Z,58.41
2022-08-07T07:24:27.705Z,57.57
2022-08-07T07:26:56.135Z,56.65
2022-08-07T07:29:39.519Z,56.37
2022-08-07T07:32:14.109Z,55.35
2022-08-07T07:34:45.892Z,54.96
2022-08-07T07:37:21.960Z,54.67
2022-08-07T07:40:14.575Z,51.68
2022-08-07T07:42:43.362Z,50.49
2022-08-07T07:45:14.827Z,52.76
2022-08-07T07:47:52.774Z,50.71
2022-08-07T07:50:34.694Z,48.02
2022-08-07T07:53:20.388Z,48.06
2022-08-07T07:55:57.639Z,47.69
2022-08-07T07:58:28.528Z,45.54
2022-08-07T08:00:55.884Z,45.66
2022-08-07T08:04:11.019Z,44.43
2022-08-07T08:06:13.047Z,44.19
2022-08-07T08:08:41.847Z,43.22
2022-08-07T08:11:16.029Z,44.67
2022-08-07T08:13:53.109Z,42.09
2022-08-07T08:16:25.013Z,42.41
2022-08-07T08:18:54.964Z,41.04
2022-08-07T08:22:03.439Z,38.83
2022-08-07T08:24:54.821Z,38.50
2022-08-07T08:27:36.284Z,39.27
2022-08-07T08:30:08.565Z,38.14
2022-08-07T08:32:53.066Z,38.45
2022-08-07T08:35:24.514Z,39.09
2022-08-07T08:38:01.161Z,35.24
2022-08-07T08:40:39.391Z,37.75
2022-08-07T08:43:42.325Z,37.37
2022-08-07T08:46:17.395Z,34.99
2022-08-07T08:48:54.378Z,36.55
2022-08-07T08:52:00.925Z,35.46
2022-08-07T08:54:26.985Z,36.37
2022-08-07T08:56:54.789Z,34.80
2022-08-07T08:59:41.736Z,34.98
2022-08-07T09:02:37.581Z,33.67
2022-08-07T09:05:31.940Z,33.65
2022-08-07T09:08:17.897Z,34.63
2022-08-07T09:10:59.315Z,33.87
2022-08-07T09:13:52.476Z,33.95
2022-08-07T09:16:30.398Z,32.55
2022-08-07T09:19:51.589Z,33.21
2022-08-07T09:24:28.623Z,33.33
2022-08-07T09:25:28.196Z,32.27
2022-08-07T09:28:04.014Z,33.25
2022-08-07T09:30:50.571Z,31.41
2022-08-07T09:33:57.044Z,31.24
2022-08-07T09:36:43.023Z,31.74
2022-08-07T09:39:55.123Z,30.22
2022-08-07T09:42:44.261Z,29.98
2022-08-07T09:47:55.115Z,31.70
2022-08-07T09:48:14.600Z,31.07
2022-08-07T09:50:56.382Z,30.52
2022-08-07T09:53:26.383Z,30.83
2022-08-07T09:56:37.201Z,30.58
2022-08-07T09:59:21.995Z,31.36
2022-08-07T10:02:11.349Z,30.32
2022-08-07T10:04:52.859Z,31.82
2022-08-07T10:07:53.789Z,29.46
2022-08-07T10:11:00.318Z,29.09
2022-08-07T10:14:01.003Z,30.00
2022-08-07T10:16:49.356Z,30.51
2022-08-07T10:19:38.510Z,29.23
2022-08-07T10:22:33.766Z,29.14
2022-08-07T10:25:45.037Z,32.54
2022-08-07T10:28:49.350Z,32.34
2022-08-07T10:31:42.280Z,28.92
2022-08-07T10:34:33.437Z,30.76
2022-08-07T10:38:00.639Z,29.68
2022-08-07T10:40:36.629Z,28.33
2022-08-07T10:43:15.198Z,31.28
2022-08-07T10:45:57.809Z,30.33
2022-08-07T10:48:48.943Z,29.32
2022-08-07T10:51:57.232Z,29.83
2022-08-07T10:54:19.841Z,29.92
2022-08-07T10:57:09.615Z,30.95
2022-08-07T11:00:08.891Z,29.51
2022-08-07T11:02:40.069Z,29.50
2022-08-07T11:05:24.973Z,29.81
2022-08-07T11:08:18.327Z,29.47
2022-08-07T11:11:06.127Z,29.86
2022-08-07T11:14:42.332Z,28.84
2022-08-07T11:16:29.913Z,29.07
2022-08-07T11:19:27.295Z,30.08
2022-08-07T11:22:02.852Z,31.80
2022-08-07T11:24:46.156Z,31.36
2022-08-07T11:28:02.386Z,32.19
2022-08-07T11:30:41.918Z,31.56
2022-08-07T11:33:54.385Z,32.70
2022-08-07T11:36:25.281Z,30.90
2022-08-07T11:39:59.180Z,30.40
2022-08-07T11:42:29.809Z,29.77
2022-08-07T11:45:20.582Z,31.06
2022-08-07T11:47:59.419Z,30.26
2022-08-07T11:50:57.349Z,31.59
2022-08-07T11:53:43.314Z,31.09
2022-08-07T11:56:40.977Z,31.97
2022-08-07T12:00:09.999Z,31.60
2022-08-07T12:02:52.135Z,31.86
2022-08-07T12:05:47.702Z,29.99
2022-08-07T12:08:34.642Z,30.03
2022-08-07T12:11:21.895Z,30.91
2022-08-07T12:14:19.281Z,31.48
2022-08-07T12:16:51.423Z,32.28
2022-08-07T12:19:56.433Z,30.20
2022-08-07T12:22:56.537Z,29.80
2022-08-07T12:26:05.882Z,31.46
2022-08-07T12:28:36.916Z,31.41
2022-08-07T12:31:09.392Z,29.24
2022-08-07T12:33:55.996Z,30.38
2022-08-07T12:36:32.656Z,30.64
2022-08-07T12:39:09.446Z,30.02
2022-08-07T12:41:52.361Z,31.18
2022-08-07T12:44:19.797Z,31.74
2022-08-07T12:47:00.269Z,32.28
2022-08-07T12:49:44.254Z,32.38
2022-08-07T12:52:28.755Z,31.53
2022-08-07T12:55:17.900Z,30.01
2022-08-07T12:58:00.515Z,30.41
2022-08-07T13:00:50.442Z,29.76
2022-08-07T13:04:02.030Z,30.53
2022-08-07T13:06:30.168Z,30.86
2022-08-07T13:10:19.770Z,31.07
2022-08-07T13:12:15.095Z,31.72
2022-08-07T13:15:23.685Z,33.63
2022-08-07T13:18:10.356Z,32.20
2022-08-07T13:20:59.529Z,29.79
2022-08-07T13:24:05.953Z,32.22
2022-08-07T13:26:46.197Z,32.29
2022-08-07T13:29:18.370Z,33.14
2022-08-07T13:31:57.570Z,29.37
2022-08-07T13:34:50.786Z,29.05
2022-08-07T13:37:32.605Z,29.62
2022-08-07T13:40:35.322Z,30.16
2022-08-07T13:42:58.908Z,27.79
2022-08-07T13:46:11.755Z,28.82
2022-08-07T13:48:27.707Z,31.54
2022-08-07T13:51:20.470Z,28.68
2022-08-07T13:54:00.557Z,28.44
2022-08-07T13:56:36.293Z,28.20
2022-08-07T13:59:21.815Z,29.19
2022-08-07T14:02:03.764Z,28.37
2022-08-07T14:04:35.666Z,28.28
2022-08-07T14:07:05.891Z,29.20
2022-08-07T14:10:02.570Z,28.18
2022-08-07T14:12:36.832Z,29.35
2022-08-07T14:15:11.059Z,29.49
2022-08-07T14:18:15.964Z,29.39
2022-08-07T14:20:42.383Z,27.57
2022-08-07T14:23:59.498Z,27.59
2022-08-07T14:26:28.335Z,26.81
2022-08-07T14:29:02.932Z,29.03
2022-08-07T14:31:42.462Z,29.17
2022-08-07T14:34:11.959Z,28.73
2022-08-07T14:36:47.848Z,28.95
2022-08-07T14:40:16.129Z,29.22
2022-08-07T14:42:20.481Z,29.23
2022-08-07T14:44:53.733Z,29.53
2022-08-07T14:47:26.717Z,28.97
2022-08-07T14:49:58.255Z,27.92
2022-08-07T14:52:28.785Z,28.36
2022-08-07T14:54:58.467Z,27.38
2022-08-07T14:57:54.912Z,28.98
2022-08-07T15:00:12.924Z,27.53
2022-08-07T15:05:55.054Z,27.99
2022-08-07T15:08:50.198Z,26.73
2022-08-07T15:11:52.866Z,27.88
2022-08-07T15:14:25.418Z,28.10
2022-08-07T15:17:04.164Z,26.38
2022-08-07T15:25:18.542Z,26.18
2022-08-07T15:28:31.056Z,27.47
2022-08-07T15:30:36.593Z,27.00
2022-08-07T15:33:33.457Z,26.44
2022-08-07T15:36:05.271Z,28.47
2022-08-07T15:38:51.268Z,26.67
2022-08-07T15:42:46.003Z,26.43
2022-08-07T15:44:13.045Z,26.57
2022-08-07T15:46:51.741Z,26.63
2022-08-07T15:49:25.566Z,26.74
2022-08-07T15:52:09.594Z,27.13
2022-08-07T15:54:40.852Z,26.94
2022-08-07T15:57:39.453Z,28.57
2022-08-07T15:59:59.208Z,28.30
2022-08-07T16:02:28.237Z,28.42
2022-08-07T16:04:58.480Z,29.29
2022-08-07T16:08:33.707Z,28.68
2022-08-07T16:10:28.638Z,27.14
2022-08-07T16:13:57.824Z,26.89
2022-08-07T16:16:47.556Z,28.02
2022-08-07T16:19:42.450Z,30.86
2022-08-07T16:22:55.449Z,27.87
2022-08-07T16:25:54.831Z,26.73
2022-08-07T16:30:06.461Z,27.67
2022-08-07T16:31:50.796Z,26.72
2022-08-07T16:34:26.064Z,22.70
2022-08-07T16:38:05.884Z,22.65
2022-08-07T16:40:57.405Z,20.99
2022-08-07T16:44:05.636Z,25.29
2022-08-07T16:47:05.716Z,26.32
2022-08-07T16:50:26.730Z,27.37
2022-08-07T16:53:15.007Z,28.38
2022-08-07T16:56:15.285Z,28.14
2022-08-07T16:59:10.838Z,29.71
2022-08-07T17:01:57.041Z,27.98
2022-08-07T17:04:36.816Z,28.19
2022-08-07T17:07:28.220Z,28.79
2022-08-07T17:10:36.808Z,29.28
2022-08-07T17:13:41.312Z,29.40
2022-08-07T17:16:17.528Z,29.73
2022-08-07T17:19:04.708Z,28.67
2022-08-07T17:21:51.634Z,28.93
2022-08-07T17:24:32.701Z,29.58
2022-08-07T17:27:37.970Z,29.75
2022-08-07T17:30:20.577Z,29.15
2022-08-07T17:34:10.195Z,30.24
2022-08-07T17:36:13.694Z,31.01
2022-08-07T17:38:56.363Z,31.57
2022-08-07T17:42:02.490Z,31.34
2022-08-07T17:44:50.124Z,29.43
2022-08-07T17:47:38.369Z,29.19
2022-08-07T17:50:16.759Z,29.82
2022-08-07T17:53:08.862Z,28.82
2022-08-07T17:56:15.232Z,28.25
2022-08-07T17:58:46.313Z,29.60
2022-08-07T18:01:22.633Z,29.74
2022-08-07T18:04:16.085Z,28.76
2022-08-07T18:07:20.776Z,29.59
2022-08-07T18:10:07.543Z,29.67
2022-08-07T18:12:54.261Z,29.29
2022-08-07T18:15:53.754Z,30.16
2022-08-07T18:18:47.449Z,29.61
2022-08-07T18:21:42.191Z,30.74
2022-08-07T18:24:35.823Z,31.46
2022-08-07T18:27:12.820Z,30.60
2022-08-07T18:30:07.391Z,31.60
2022-08-07T18:33:16.950Z,31.64
2022-08-07T18:35:55.601Z,31.45
2022-08-07T18:38:58.641Z,32.98
2022-08-07T18:42:04.149Z,35.23
2022-08-07T18:45:44.895Z,36.26
2022-08-07T18:48:02.656Z,39.46
2022-08-07T18:50:47.732Z,44.67
2022-08-07T18:53:39.366Z,51.43
2022-08-07T18:56:30.643Z,52.10
2022-08-07T18:59:47.591Z,58.74
2022-08-07T19:02:36.259Z,64.38
2022-08-07T19:05:21.570Z,65.74
2022-08-07T19:08:03.994Z,65.97
2022-08-07T19:10:49.509Z,67.27
2022-08-07T19:13:50.058Z,68.05
2022-08-07T19:17:01.510Z,70.00
2022-08-07T19:19:13.136Z,69.48
2022-08-07T19:21:56.088Z,69.95
2022-08-07T19:24:43.536Z,53.93
2022-08-07T19:28:58.224Z,68.63
2022-08-07T19:31:00.700Z,68.20
2022-08-07T19:32:52.768Z,67.25
2022-08-07T19:35:28.239Z,67.08
2022-08-07T19:38:02.375Z,53.98
2022-08-07T19:40:38.011Z,66.19
2022-08-07T19:43:45.192Z,65.18
2022-08-07T19:46:10.511Z,65.49
2022-08-07T19:48:43.633Z,66.06
2022-08-07T19:51:19.218Z,60.98
2022-08-07T19:54:32.522Z,57.01
2022-08-07T19:57:56.800Z,57.60
2022-08-07T19:59:40.672Z,58.56
2022-08-07T20:02:19.032Z,62.63
2022-08-07T20:04:49.366Z,64.06
2022-08-07T20:14:53.895Z,61.38
2022-08-07T20:17:26.766Z,65.57
2022-08-07T20:19:58.489Z,65.44
2022-08-07T20:22:34.241Z,66.75
2022-08-07T20:25:19.966Z,65.18
2022-08-07T20:27:57.987Z,67.38
2022-08-07T20:30:33.487Z,68.02
2022-08-07T20:33:01.677Z,67.42
2022-08-07T20:35:37.087Z,66.54
2022-08-07T20:38:21.446Z,66.03
2022-08-07T20:40:52.835Z,60.68
2022-08-07T20:43:24.984Z,56.60
2022-08-07T20:46:27.105Z,53.62
2022-08-07T20:49:54.091Z,50.68
2022-08-07T20:51:31.498Z,53.27
2022-08-07T20:54:12.257Z,55.06
2022-08-07T20:56:56.488Z,49.25
2022-08-07T21:00:06.283Z,53.32
2022-08-07T21:02:38.245Z,62.00
2022-08-07T21:05:10.329Z,58.40
2022-08-07T21:07:43.642Z,56.01
2022-08-07T21:10:25.104Z,52.37
2022-08-07T21:12:59.311Z,52.68
2022-08-07T21:15:47.697Z,51.87
2022-08-07T21:18:29.581Z,53.26
2022-08-07T21:21:00.474Z,52.42
2022-08-07T21:23:56.646Z,50.82
2022-08-07T21:26:27.793Z,56.08
2022-08-07T21:29:12.810Z,51.67
2022-08-07T21:32:43.614Z,51.10
2022-08-07T21:35:01.423Z,52.32
2022-08-07T21:37:59.231Z,56.30
2022-08-07T21:40:41.756Z,58.82
2022-08-07T21:43:23.254Z,59.75
2022-08-07T21:46:09.502Z,58.92
2022-08-07T21:48:56.400Z,57.72
2022-08-07T21:51:32.649Z,61.72
2022-08-07T21:54:09.284Z,61.84
2022-08-07T21:56:57.912Z,59.26
2022-08-07T22:00:04.288Z,60.75
2022-08-07T22:03:08.893Z,57.56
2022-08-07T22:05:52.165Z,55.90
2022-08-07T22:08:23.226Z,55.60
2022-08-07T22:10:54.916Z,57.37
2022-08-07T22:13:52.352Z,54.21
2022-08-07T22:23:49.924Z,58.81
2022-08-07T22:26:24.863Z,59.32
2022-08-07T22:28:55.980Z,59.80
2022-08-07T22:31:59.176Z,57.67
2022-08-07T22:34:38.617Z,52.64
2022-08-07T22:37:12.509Z,52.32
2022-08-07T22:39:54.299Z,50.94
2022-08-07T22:42:54.104Z,49.24
2022-08-07T22:46:21.603Z,53.07
2022-08-07T22:48:31.511Z,54.66
2022-08-07T22:51:21.655Z,54.11
2022-08-07T22:54:06.430Z,53.83
2022-08-07T22:56:47.916Z,60.04
2022-08-07T22:59:24.057Z,58.75
2022-08-07T23:01:54.436Z,55.45
2022-08-07T23:06:07.353Z,56.11
2022-08-07T23:07:53.993Z,60.81
2022-08-07T23:10:39.566Z,60.28
2022-08-07T23:13:48.847Z,60.19
2022-08-07T23:16:55.003Z,60.63
2022-08-07T23:20:03.522Z,58.66
2022-08-07T23:23:02.867Z,58.88
2022-08-07T23:26:06.823Z,60.40
2022-08-07T23:29:04.358Z,57.72
2022-08-07T23:34:21.572Z,61.07
2022-08-07T23:35:13.932Z,59.55
2022-08-07T23:38:36.197Z,61.37
2022-08-07T23:41:33.299Z,59.36
2022-08-07T23:44:09.866Z,60.74
2022-08-07T23:47:06.243Z,58.44
2022-08-07T23:49:50.997Z,56.74
2022-08-07T23:53:00.046Z,55.97
2022-08-07T23:55:52.591Z,59.63
2022-08-07T23:58:38.377Z,60.27
